Welcome!

Visit our other weather sites:

Template documentation
and downloads

And another site



There are no active watches, warnings or advisories

Nearby METAR Reports

   
KAVP - Albrightsville, PA
Updated: Apr 25 2019 11:54 am
Clear  
Clear  
   Wind: WSW 11.5 mph
Wind: WSW 11.5 mph
Temperature: 64.4°F
Dew Point: 33.8°F
Humidity: 32%
Barometer: 29.9 inHg
Clouds: Clear
Visibility: 9 mi
Cloud details: Clear
KAVP 251654Z 25010KT 9SM CLR 18/01 A2990 RMK AO2 SLP122 T01830011
KIWA - Apache Junction, AZ
Updated: Apr 25 2019 11:50 am
Clear  
Clear  
   Wind: SE 8.1 mph
Wind: SE 8.1 mph
Temperature: 82.4°F
Dew Point: 41°F
Humidity: 23%
Barometer: 29.98 inHg
Clouds: Clear
Visibility: 20 mi
Cloud details: Clear
KIWA 251650Z 13007KT 20SM SKC 28/05 A2998
KPKB - Blue Rock, OH
Updated: Apr 25 2019 12:22 pm
Mostly Cloudy  
Mostly Cloudy  
   Wind: East 3.5 mph
Wind: East 3.5 mph
Temperature: 64.4°F
Dew Point: 60.8°F
Humidity: 88%
Barometer: 29.87 inHg
Clouds: Mostly Cloudy
Visibility: 10 mi
Cloud details: Mostly Cloudy 244 m,
Mostly Cloudy 1006 m
KPKB 251722Z 10003KT 10SM BKN008 BKN033 18/16 A2987 RMK AO2 RAE13 P0000 T01830156
KHVN - Branford, CT
Updated: Apr 25 2019 11:53 am
Clear  
Clear  
   Wind: South 11.5 mph
Wind: South 11.5 mph
Temperature: 55.4°F
Dew Point: 41°F
Humidity: 59%
Barometer: 29.96 inHg
Clouds: Clear
Visibility: 10 mi
Cloud details: Clear
KHVN 251653Z 17010KT 10SM CLR 13/05 A2996 RMK AO2 SLP144 T01330050
KPHX - Carefree, AZ
Updated: Apr 25 2019 11:51 am
Clear  
Clear  
   Wind: varies 3.5 mph
Wind: varies 3.5 mph
Temperature: 84.2°F
Dew Point: 37.4°F
Humidity: 19%
Barometer: 29.94 inHg
Clouds: Clear
Visibility: 10 mi
Cloud details: Clear
KPHX 251651Z VRB03KT 10SM CLR 29/03 A2994 RMK AO2 SLP121 T02890028
 

Script developed by  Saratoga-weather.org Adapted for the template by  Weerstation Leuven